Time;durP1;ratioP1;P1;durP2;ratioP2;P2;SDS_P1;SDS_P2;PMS_P1;PMS_P2;Temp;Humidity;BMP_temperature;BMP_pressure;BME280_temperature;BME280_humidity;BME280_pressure;Samples;Min_cycle;Max_cycle;Signal;HPM_P1;HPM_P2
2021/12/20 00:01:38;;;;;;;;;;;5.90;99.90;;;;;;5087183;22;19924;-80
2021/12/20 00:04:04;;;;;;;;;;;5.90;99.90;;;;;;5080664;28;20297;-80
2021/12/20 00:06:30;;;;;;;;;;;5.90;99.90;;;;;;5081153;28;19931;-80
2021/12/20 00:08:55;;;;;;;;;;;5.90;99.90;;;;;;5068057;22;19924;-80
2021/12/20 00:11:21;;;;;;;;;;;7.00;99.90;;;;;;5045015;28;19948;-80
2021/12/20 00:13:46;;;;;;;;;;;6.00;99.90;;;;;;5087773;22;19932;-80
2021/12/20 00:16:12;;;;;;;;;;;6.00;99.90;;;;;;5068884;22;19928;-80
2021/12/20 00:18:38;;;;;;;;;;;5.90;99.90;;;;;;5077304;28;19924;-80
2021/12/20 00:21:03;;;;;;;;;;;5.90;99.90;;;;;;5084705;22;20345;-80
2021/12/20 00:23:29;;;;;;;;;;;6.60;99.90;;;;;;5060976;28;20374;-80
2021/12/20 00:25:55;;;;;;;;;;;6.60;99.90;;;;;;5078669;22;20340;-80
2021/12/20 00:28:21;;;;;;;;;;;7.00;99.90;;;;;;5084554;22;20378;-80
2021/12/20 00:30:47;;;;;;;;;;;5.90;99.90;;;;;;5076538;22;19977;-80
2021/12/20 00:33:13;;;;;;;;;;;5.90;99.90;;;;;;5060563;28;19924;-80
2021/12/20 00:35:38;;;;;;;;;;;6.80;99.90;;;;;;5051742;22;19966;-81
2021/12/20 00:40:48;;;;;;;;;;;5.90;99.90;;;;;;5097632;28;19969;-80
2021/12/20 00:43:14;;;;;;;;;;;5.90;99.90;;;;;;5079166;28;19928;-80
2021/12/20 00:45:40;;;;;;;;;;;6.90;99.90;;;;;;5063359;28;20409;-80
2021/12/20 00:48:06;;;;;;;;;;;6.90;99.90;;;;;;5096982;28;20018;-80
2021/12/20 00:50:32;;;;;;;;;;;6.00;99.90;;;;;;5061627;28;19974;-80
2021/12/20 00:52:58;;;;;;;;;;;5.80;99.90;;;;;;5082412;22;19929;-80
2021/12/20 00:55:25;;;;;;;;;;;5.90;99.90;;;;;;5041927;28;19974;-81
2021/12/20 00:57:52;;;;;;;;;;;5.80;99.90;;;;;;5052904;22;19928;-80
2021/12/20 01:00:19;;;;;;;;;;;6.10;99.90;;;;;;5061679;28;19924;-80
2021/12/20 01:02:45;;;;;;;;;;;5.80;99.90;;;;;;5105219;22;19976;-80
2021/12/20 01:05:11;;;;;;;;;;;5.80;99.90;;;;;;5063531;28;19928;-80
2021/12/20 01:07:37;;;;;;;;;;;6.60;99.90;;;;;;5078942;28;20381;-80
2021/12/20 01:10:06;;;;;;;;;;;6.60;99.90;;;;;;5062458;28;19924;-80
2021/12/20 01:12:41;;;;;;;;;;;5.80;99.90;;;;;;5066351;23;19924;-80
2021/12/20 01:15:08;;;;;;;;;;;5.80;99.90;;;;;;5081994;22;19967;-80
2021/12/20 01:17:33;;;;;;;;;;;5.80;99.90;;;;;;5068013;22;19955;-81
2021/12/20 01:19:59;;;;;;;;;;;5.80;99.90;;;;;;5077241;28;20435;-80
2021/12/20 01:22:24;;;;;;;;;;;5.80;99.90;;;;;;5078543;28;19924;-80
2021/12/20 01:24:50;;;;;;;;;;;6.60;99.90;;;;;;5095102;28;19924;-80
2021/12/20 01:27:16;;;;;;;;;;;5.90;99.90;;;;;;5081743;22;19928;-80
2021/12/20 01:29:41;;;;;;;;;;;5.70;99.90;;;;;;5074702;28;19977;-80
2021/12/20 01:32:07;;;;;;;;;;;5.70;99.90;;;;;;5059345;28;19974;-80
2021/12/20 01:34:32;;;;;;;;;;;5.70;99.90;;;;;;5093797;28;19924;-80
2021/12/20 01:36:58;;;;;;;;;;;5.70;99.90;;;;;;5077399;28;19932;-80
2021/12/20 01:39:23;;;;;;;;;;;5.80;99.90;;;;;;5076865;28;19950;-80
2021/12/20 01:41:52;;;;;;;;;;;5.70;99.90;;;;;;5076479;28;19928;-80
2021/12/20 01:44:18;;;;;;;;;;;5.70;99.90;;;;;;5074338;28;19931;-80
2021/12/20 01:46:44;;;;;;;;;;;5.80;99.90;;;;;;5074553;28;19920;-80
2021/12/20 01:49:13;;;;;;;;;;;5.70;99.90;;;;;;5073955;28;19975;-80
2021/12/20 01:54:11;;;;;;;;;;;5.70;99.90;;;;;;5075408;28;19927;-80
2021/12/20 01:56:40;;;;;;;;;;;5.70;99.90;;;;;;5075305;28;20278;-80
2021/12/20 01:59:06;;;;;;;;;;;5.70;99.90;;;;;;5075156;28;19974;-80
2021/12/20 02:01:32;;;;;;;;;;;5.80;99.90;;;;;;5074447;28;19924;-80
2021/12/20 02:04:01;;;;;;;;;;;5.70;99.90;;;;;;5074509;28;20027;-80
2021/12/20 02:06:32;;;;;;;;;;;5.70;99.90;;;;;;5057626;28;19924;-80
2021/12/20 02:09:17;;;;;;;;;;;5.70;99.90;;;;;;5075448;28;20303;-80
2021/12/20 02:11:43;;;;;;;;;;;5.70;99.90;;;;;;5090697;28;19925;-80
2021/12/20 02:14:10;;;;;;;;;;;5.70;99.90;;;;;;5073959;28;19932;-80
2021/12/20 02:16:36;;;;;;;;;;;5.60;99.90;;;;;;5091902;28;19924;-80
2021/12/20 02:19:03;;;;;;;;;;;5.60;99.90;;;;;;5075928;28;19924;-80
2021/12/20 02:21:29;;;;;;;;;;;5.50;99.90;;;;;;5075789;28;19928;-80
2021/12/20 02:23:54;;;;;;;;;;;6.10;99.90;;;;;;5065352;23;19939;-80
2021/12/20 02:26:22;;;;;;;;;;;6.10;99.90;;;;;;5077592;22;19928;-80
2021/12/20 02:28:49;;;;;;;;;;;5.60;99.90;;;;;;5076013;28;20318;-80
2021/12/20 02:39:13;;;;;;;;;;;5.60;99.90;;;;;;5076480;28;19932;-80
2021/12/20 02:41:39;;;;;;;;;;;6.50;99.90;;;;;;5075987;28;19924;-80
2021/12/20 02:44:06;;;;;;;;;;;5.70;99.90;;;;;;5074877;28;19931;-80
2021/12/20 02:49:05;;;;;;;;;;;5.60;99.90;;;;;;5095190;22;19924;-80
2021/12/20 02:51:31;;;;;;;;;;;6.60;99.90;;;;;;5078075;28;19928;-80
2021/12/20 02:53:57;;;;;;;;;;;5.70;99.90;;;;;;5095259;28;20427;-80
2021/12/20 02:56:23;;;;;;;;;;;6.60;99.90;;;;;;5076910;28;19924;-80
2021/12/20 02:58:49;;;;;;;;;;;5.70;99.90;;;;;;5094336;28;19924;-80
2021/12/20 03:01:15;;;;;;;;;;;6.40;99.90;;;;;;5096329;28;19924;-80
2021/12/20 03:03:40;;;;;;;;;;;5.60;99.90;;;;;;5076353;28;19924;-80
2021/12/20 03:06:14;;;;;;;;;;;5.60;99.90;;;;;;5077028;28;20263;-80
2021/12/20 03:08:42;;;;;;;;;;;5.60;99.90;;;;;;5094351;28;19931;-80
2021/12/20 03:11:08;;;;;;;;;;;6.30;99.90;;;;;;5087664;22;20255;-80
2021/12/20 03:13:34;;;;;;;;;;;5.60;99.90;;;;;;5073265;28;19970;-80
2021/12/20 03:15:59;;;;;;;;;;;6.40;99.90;;;;;;5057472;28;19978;-80
2021/12/20 03:18:25;;;;;;;;;;;5.70;99.90;;;;;;5057135;28;19925;-80
2021/12/20 03:20:50;;;;;;;;;;;5.60;99.90;;;;;;5057823;28;19924;-80
2021/12/20 03:23:16;;;;;;;;;;;6.60;99.90;;;;;;5074006;28;19980;-80
2021/12/20 03:25:41;;;;;;;;;;;5.60;99.90;;;;;;5077001;28;19931;-80
2021/12/20 03:28:07;;;;;;;;;;;6.50;99.90;;;;;;5061252;28;19976;-80
2021/12/20 03:30:32;;;;;;;;;;;5.50;99.90;;;;;;5077429;28;19932;-80
2021/12/20 03:32:58;;;;;;;;;;;6.00;99.90;;;;;;5061147;28;19928;-80
2021/12/20 03:35:23;;;;;;;;;;;6.50;99.90;;;;;;5076564;22;20389;-80
2021/12/20 03:37:49;;;;;;;;;;;5.40;99.90;;;;;;5086159;22;19924;-80
2021/12/20 03:40:14;;;;;;;;;;;5.40;99.90;;;;;;5077639;28;20019;-80
2021/12/20 03:42:45;;;;;;;;;;;5.40;99.90;;;;;;5093519;28;19932;-80
2021/12/20 03:45:13;;;;;;;;;;;5.40;99.90;;;;;;5079516;28;19925;-80
2021/12/20 03:47:39;;;;;;;;;;;6.20;99.90;;;;;;5076764;28;19921;-80
2021/12/20 03:50:04;;;;;;;;;;;5.30;99.90;;;;;;5077557;28;19935;-80
2021/12/20 03:52:30;;;;;;;;;;;5.30;99.90;;;;;;5078507;28;19975;-80
2021/12/20 03:54:55;;;;;;;;;;;6.10;99.90;;;;;;5084455;22;20288;-80
2021/12/20 03:57:21;;;;;;;;;;;5.30;99.90;;;;;;5060724;28;20430;-80
2021/12/20 03:59:48;;;;;;;;;;;5.70;99.90;;;;;;5044359;28;19924;-80
2021/12/20 04:02:17;;;;;;;;;;;6.30;99.90;;;;;;5060108;28;19928;-80
2021/12/20 04:04:43;;;;;;;;;;;5.30;99.90;;;;;;5057901;23;19925;-80
2021/12/20 04:07:08;;;;;;;;;;;5.60;99.90;;;;;;5078005;28;19924;-80
2021/12/20 04:09:34;;;;;;;;;;;5.30;99.90;;;;;;5059827;28;19921;-80
2021/12/20 04:12:00;;;;;;;;;;;5.10;99.90;;;;;;5061548;28;19924;-80
2021/12/20 04:14:25;;;;;;;;;;;5.10;99.90;;;;;;5078912;28;20274;-80
2021/12/20 04:16:51;;;;;;;;;;;5.40;99.90;;;;;;5077669;28;19925;-80
2021/12/20 04:19:16;;;;;;;;;;;6.00;99.90;;;;;;5078302;28;19924;-80
2021/12/20 04:21:42;;;;;;;;;;;5.50;99.90;;;;;;5077031;28;19974;-80
2021/12/20 04:24:07;;;;;;;;;;;5.70;99.90;;;;;;5097114;22;19974;-80
2021/12/20 04:26:33;;;;;;;;;;;5.10;99.90;;;;;;5081660;28;20360;-80
2021/12/20 04:28:59;;;;;;;;;;;5.10;99.90;;;;;;5097914;28;19932;-80
2021/12/20 04:31:24;;;;;;;;;;;5.40;99.90;;;;;;5088981;22;19964;-80
2021/12/20 04:33:50;;;;;;;;;;;5.10;99.90;;;;;;5060299;28;19928;-80
2021/12/20 04:36:16;;;;;;;;;;;5.10;99.90;;;;;;5077023;28;19925;-80
2021/12/20 04:38:43;;;;;;;;;;;5.10;99.90;;;;;;5061474;28;19951;-80
2021/12/20 04:41:09;;;;;;;;;;;5.10;99.90;;;;;;5060053;28;19925;-80
2021/12/20 04:43:35;;;;;;;;;;;5.10;99.90;;;;;;5077380;28;20342;-80
2021/12/20 04:46:00;;;;;;;;;;;5.20;99.90;;;;;;5060144;28;19973;-80
2021/12/20 04:48:26;;;;;;;;;;;5.20;99.90;;;;;;5060391;28;20369;-80
2021/12/20 04:50:51;;;;;;;;;;;6.00;99.90;;;;;;5078733;22;20014;-80
2021/12/20 04:53:17;;;;;;;;;;;4.90;99.90;;;;;;5080731;28;19950;-80
2021/12/20 04:55:43;;;;;;;;;;;4.80;99.90;;;;;;5081503;28;19928;-80
2021/12/20 04:58:08;;;;;;;;;;;4.90;99.90;;;;;;5080573;28;20239;-80
2021/12/20 05:00:35;;;;;;;;;;;4.80;99.90;;;;;;5096389;28;19924;-80
2021/12/20 05:03:01;;;;;;;;;;;5.30;99.90;;;;;;5096094;28;19928;-80
2021/12/20 05:05:28;;;;;;;;;;;5.00;99.90;;;;;;5078675;28;19924;-80
2021/12/20 05:07:54;;;;;;;;;;;4.70;99.90;;;;;;5078558;28;19924;-80
2021/12/20 05:10:30;;;;;;;;;;;5.10;99.90;;;;;;5094757;28;19924;-80
2021/12/20 05:12:58;;;;;;;;;;;5.60;99.90;;;;;;5102896;22;19924;-80
2021/12/20 05:15:25;;;;;;;;;;;4.60;99.90;;;;;;5078311;28;20014;-80
2021/12/20 05:17:50;;;;;;;;;;;5.60;99.90;;;;;;5078173;28;19924;-80
2021/12/20 05:20:16;;;;;;;;;;;5.10;99.90;;;;;;5095035;28;19947;-80
2021/12/20 05:22:42;;;;;;;;;;;4.50;99.90;;;;;;5094705;28;20359;-80
2021/12/20 05:25:08;;;;;;;;;;;5.20;99.90;;;;;;5095770;28;19971;-80
2021/12/20 05:27:34;;;;;;;;;;;4.50;99.90;;;;;;5086082;22;19931;-80
2021/12/20 05:30:00;;;;;;;;;;;5.50;99.90;;;;;;5061261;28;20316;-80
2021/12/20 05:32:26;;;;;;;;;;;4.50;99.90;;;;;;5062421;28;19928;-80
2021/12/20 05:34:52;;;;;;;;;;;5.40;99.90;;;;;;5061844;28;20405;-80
2021/12/20 05:37:18;;;;;;;;;;;4.50;99.90;;;;;;5063165;28;19924;-80
2021/12/20 05:39:45;;;;;;;;;;;4.80;99.90;;;;;;5062210;28;19924;-80
2021/12/20 05:42:11;;;;;;;;;;;4.90;99.90;;;;;;5062263;28;20383;-80
2021/12/20 05:44:36;;;;;;;;;;;5.60;99.90;;;;;;5078167;28;19931;-80
2021/12/20 05:47:02;;;;;;;;;;;5.00;99.90;;;;;;5060807;28;19987;-80
2021/12/20 05:49:28;;;;;;;;;;;4.60;99.90;;;;;;5079170;28;20398;-80
2021/12/20 05:51:53;;;;;;;;;;;4.60;99.90;;;;;;5078949;28;19928;-80
2021/12/20 05:54:19;;;;;;;;;;;5.70;99.90;;;;;;5063275;28;19947;-80
2021/12/20 05:56:44;;;;;;;;;;;4.70;99.90;;;;;;5079541;28;19924;-80
2021/12/20 05:59:10;;;;;;;;;;;4.80;99.90;;;;;;5062758;28;19975;-80
2021/12/20 06:01:35;;;;;;;;;;;4.70;99.90;;;;;;5063254;28;19950;-80
2021/12/20 06:04:01;;;;;;;;;;;4.70;99.90;;;;;;5062140;28;19924;-80
2021/12/20 06:06:28;;;;;;;;;;;5.40;99.90;;;;;;5062102;28;20349;-80
2021/12/20 06:08:54;;;;;;;;;;;5.00;99.90;;;;;;5079565;28;19931;-80
2021/12/20 06:11:19;;;;;;;;;;;4.70;99.90;;;;;;5061488;28;19924;-80
2021/12/20 06:13:45;;;;;;;;;;;4.70;99.90;;;;;;5077907;28;19928;-80
2021/12/20 06:16:11;;;;;;;;;;;5.30;99.90;;;;;;5061029;28;20427;-80
2021/12/20 06:18:36;;;;;;;;;;;4.70;99.90;;;;;;5060980;28;20006;-80
2021/12/20 06:21:02;;;;;;;;;;;5.00;99.90;;;;;;5060251;28;19946;-80
2021/12/20 06:23:27;;;;;;;;;;;5.40;99.90;;;;;;5060387;28;20376;-80
2021/12/20 06:25:53;;;;;;;;;;;4.60;99.90;;;;;;5078017;28;19985;-80
2021/12/20 06:28:19;;;;;;;;;;;4.60;99.90;;;;;;5061437;28;19924;-80
2021/12/20 06:30:44;;;;;;;;;;;5.20;99.90;;;;;;5079194;28;19931;-80
2021/12/20 06:33:10;;;;;;;;;;;5.30;99.90;;;;;;5061386;28;20482;-80
2021/12/20 06:35:35;;;;;;;;;;;5.50;99.90;;;;;;5078900;28;19928;-80
2021/12/20 06:38:03;;;;;;;;;;;5.30;99.90;;;;;;5060410;28;19924;-80
2021/12/20 06:40:31;;;;;;;;;;;5.60;99.90;;;;;;5060781;28;19924;-80
2021/12/20 06:42:56;;;;;;;;;;;4.60;99.90;;;;;;5077518;28;20374;-80
2021/12/20 06:45:22;;;;;;;;;;;4.60;99.90;;;;;;5076875;28;19931;-80
2021/12/20 06:47:48;;;;;;;;;;;4.60;99.90;;;;;;5060747;28;19920;-80
2021/12/20 06:50:13;;;;;;;;;;;5.70;99.90;;;;;;5095220;28;19924;-80
2021/12/20 06:52:39;;;;;;;;;;;5.70;99.90;;;;;;5095665;28;19920;-80
2021/12/20 06:55:04;;;;;;;;;;;5.10;99.90;;;;;;5077635;28;20540;-80
2021/12/20 06:57:30;;;;;;;;;;;4.60;99.90;;;;;;5076330;28;20384;-80
2021/12/20 06:59:56;;;;;;;;;;;4.60;99.90;;;;;;5080565;28;20521;-80
2021/12/20 07:02:22;;;;;;;;;;;4.30;99.90;;;;;;5080736;28;19974;-80
2021/12/20 07:04:48;;;;;;;;;;;4.70;99.90;;;;;;5064744;28;19924;-80
2021/12/20 07:07:14;;;;;;;;;;;4.60;99.90;;;;;;5064615;28;19931;-80
2021/12/20 07:09:39;;;;;;;;;;;4.60;99.90;;;;;;5081072;28;19969;-80
2021/12/20 07:12:05;;;;;;;;;;;5.70;99.90;;;;;;5081560;28;19942;-80
2021/12/20 07:14:31;;;;;;;;;;;4.60;99.90;;;;;;5080651;28;19924;-80
2021/12/20 07:16:57;;;;;;;;;;;5.40;99.90;;;;;;5063353;28;20006;-80
2021/12/20 07:19:22;;;;;;;;;;;4.80;99.90;;;;;;5080206;28;19950;-80
2021/12/20 07:21:48;;;;;;;;;;;4.60;99.90;;;;;;5080687;28;19930;-80
2021/12/20 07:24:13;;;;;;;;;;;4.60;99.90;;;;;;5080281;28;20392;-80
2021/12/20 07:26:43;;;;;;;;;;;5.30;99.90;;;;;;5064653;28;20332;-80
2021/12/20 07:29:09;;;;;;;;;;;4.60;99.90;;;;;;5063652;28;19924;-80
2021/12/20 07:31:34;;;;;;;;;;;4.70;99.90;;;;;;5063609;28;19924;-80
2021/12/20 07:34:00;;;;;;;;;;;5.00;99.90;;;;;;5080302;28;19924;-80
2021/12/20 07:36:25;;;;;;;;;;;5.60;99.90;;;;;;5079779;28;20411;-80
2021/12/20 07:38:51;;;;;;;;;;;4.60;99.90;;;;;;5086817;22;19924;-80
2021/12/20 07:41:21;;;;;;;;;;;4.70;99.90;;;;;;5063931;28;19933;-80
2021/12/20 07:43:47;;;;;;;;;;;4.70;99.90;;;;;;5080320;28;20282;-80
2021/12/20 07:46:13;;;;;;;;;;;4.70;99.90;;;;;;5080523;28;19924;-80
2021/12/20 07:48:39;;;;;;;;;;;4.90;99.90;;;;;;5079914;28;20279;-80
2021/12/20 07:51:04;;;;;;;;;;;4.60;99.90;;;;;;5079981;28;19924;-80
2021/12/20 07:53:30;;;;;;;;;;;4.60;99.90;;;;;;5097510;28;20275;-80
2021/12/20 07:55:56;;;;;;;;;;;4.60;99.90;;;;;;5079961;28;20333;-80
2021/12/20 07:58:21;;;;;;;;;;;4.70;99.90;;;;;;5079445;28;19946;-80
2021/12/20 08:00:47;;;;;;;;;;;5.70;99.90;;;;;;5063195;28;19925;-80
2021/12/20 08:03:12;;;;;;;;;;;5.50;99.90;;;;;;5079863;28;19924;-80
2021/12/20 08:05:38;;;;;;;;;;;4.80;99.90;;;;;;5079859;28;19924;-80
2021/12/20 08:08:04;;;;;;;;;;;5.40;99.90;;;;;;5079045;28;19931;-80
2021/12/20 08:10:30;;;;;;;;;;;4.80;99.90;;;;;;5061707;28;19928;-80
2021/12/20 08:12:55;;;;;;;;;;;4.80;99.90;;;;;;5079295;28;19931;-80
2021/12/20 08:15:21;;;;;;;;;;;4.80;99.90;;;;;;5096340;28;20014;-80
2021/12/20 08:17:47;;;;;;;;;;;4.80;99.90;;;;;;5080089;28;20297;-80
2021/12/20 08:20:13;;;;;;;;;;;4.80;99.90;;;;;;5097637;28;19950;-80
2021/12/20 08:22:39;;;;;;;;;;;5.30;99.90;;;;;;5067623;22;20374;-80
2021/12/20 08:25:06;;;;;;;;;;;4.80;99.90;;;;;;5042108;28;20329;-80
2021/12/20 08:27:32;;;;;;;;;;;4.90;99.90;;;;;;5059021;28;19932;-80
2021/12/20 08:29:57;;;;;;;;;;;4.80;99.90;;;;;;5058444;28;19928;-80
2021/12/20 08:32:23;;;;;;;;;;;5.70;99.90;;;;;;5075463;28;20024;-80
2021/12/20 08:34:48;;;;;;;;;;;4.90;99.90;;;;;;5092902;28;19925;-80
2021/12/20 08:37:14;;;;;;;;;;;4.90;99.90;;;;;;5042614;28;19931;-80
2021/12/20 08:39:40;;;;;;;;;;;4.90;99.90;;;;;;5058582;28;19924;-80
2021/12/20 08:42:05;;;;;;;;;;;5.00;99.90;;;;;;5076251;28;20019;-80
2021/12/20 08:44:31;;;;;;;;;;;5.00;99.90;;;;;;5042035;28;19931;-80
2021/12/20 08:46:58;;;;;;;;;;;5.60;99.90;;;;;;5092494;28;19950;-80
2021/12/20 08:49:24;;;;;;;;;;;5.40;99.90;;;;;;5075946;28;20349;-80
2021/12/20 08:51:49;;;;;;;;;;;5.00;99.90;;;;;;5076412;28;19971;-80
2021/12/20 08:54:15;;;;;;;;;;;5.10;99.90;;;;;;5058278;28;19964;-80
2021/12/20 08:56:41;;;;;;;;;;;5.90;99.90;;;;;;5058543;28;19935;-80
2021/12/20 08:59:07;;;;;;;;;;;5.20;99.90;;;;;;5058616;28;19924;-80
2021/12/20 09:01:33;;;;;;;;;;;6.20;99.90;;;;;;5041778;28;19971;-80
2021/12/20 09:03:59;;;;;;;;;;;5.20;99.90;;;;;;5041760;28;19934;-80
2021/12/20 09:06:26;;;;;;;;;;;6.30;99.90;;;;;;5076922;28;19924;-80
2021/12/20 09:08:54;;;;;;;;;;;5.20;99.90;;;;;;5041343;28;20382;-80
2021/12/20 09:11:21;;;;;;;;;;;5.30;99.90;;;;;;5058788;28;19925;-80
2021/12/20 09:13:46;;;;;;;;;;;5.30;99.90;;;;;;5058184;28;19924;-80
2021/12/20 09:16:12;;;;;;;;;;;5.30;99.90;;;;;;5091762;28;19978;-80
2021/12/20 09:18:38;;;;;;;;;;;5.40;99.90;;;;;;5041400;28;19951;-80
2021/12/20 09:21:04;;;;;;;;;;;5.40;99.90;;;;;;5075952;28;19932;-80
2021/12/20 09:23:31;;;;;;;;;;;5.40;99.90;;;;;;5091301;28;19924;-80
2021/12/20 09:25:57;;;;;;;;;;;5.50;99.90;;;;;;5092334;28;19979;-80
2021/12/20 09:28:22;;;;;;;;;;;5.50;99.90;;;;;;5076757;28;20374;-80
2021/12/20 09:30:49;;;;;;;;;;;5.50;99.90;;;;;;5115897;22;19931;-80
2021/12/20 09:33:15;;;;;;;;;;;5.50;99.90;;;;;;5058767;28;20294;-80
2021/12/20 09:35:40;;;;;;;;;;;5.50;99.90;;;;;;5079551;28;20003;-80
2021/12/20 09:38:09;;;;;;;;;;;5.60;99.90;;;;;;5044164;28;19986;-80
2021/12/20 09:40:40;;;;;;;;;;;6.10;99.90;;;;;;5042635;28;19931;-80
2021/12/20 09:43:07;;;;;;;;;;;5.60;99.90;;;;;;5057419;28;20379;-80
2021/12/20 09:45:33;;;;;;;;;;;6.30;99.90;;;;;;5059023;28;19932;-80
2021/12/20 09:47:59;;;;;;;;;;;5.60;99.90;;;;;;5041008;28;20302;-80
2021/12/20 09:50:25;;;;;;;;;;;5.30;99.90;;;;;;5040559;28;19929;-80
2021/12/20 09:52:51;;;;;;;;;;;5.50;99.90;;;;;;5040513;28;19925;-80
2021/12/20 09:55:16;;;;;;;;;;;5.50;99.90;;;;;;5056978;28;19932;-80
2021/12/20 09:57:43;;;;;;;;;;;6.00;99.90;;;;;;5057691;28;19925;-80
2021/12/20 10:00:10;;;;;;;;;;;5.50;99.90;;;;;;5041049;28;19924;-80
2021/12/20 10:02:35;;;;;;;;;;;5.40;99.90;;;;;;5075397;28;19924;-80
2021/12/20 10:05:01;;;;;;;;;;;5.40;99.90;;;;;;5057630;28;19931;-80
2021/12/20 10:07:28;;;;;;;;;;;6.20;99.90;;;;;;5073635;28;19924;-80
2021/12/20 10:09:54;;;;;;;;;;;5.40;99.90;;;;;;5075058;28;19931;-80
2021/12/20 10:12:24;;;;;;;;;;;5.40;99.90;;;;;;5075105;28;19928;-80
2021/12/20 10:14:51;;;;;;;;;;;5.40;99.90;;;;;;5057865;28;20011;-80
2021/12/20 10:17:16;;;;;;;;;;;6.00;99.90;;;;;;5042624;28;19975;-80
2021/12/20 10:19:42;;;;;;;;;;;5.40;99.90;;;;;;5060936;28;19925;-80
2021/12/20 10:22:21;;;;;;;;;;;5.70;99.90;;;;;;5044058;28;19970;-80
2021/12/20 10:24:47;;;;;;;;;;;5.40;99.90;;;;;;5059762;28;19924;-80
2021/12/20 10:27:29;;;;;;;;;;;5.40;99.90;;;;;;5077328;28;19920;-79
2021/12/20 10:29:55;;;;;;;;;;;5.40;99.90;;;;;;5058974;28;19924;-80
2021/12/20 10:32:39;;;;;;;;;;;5.10;99.90;;;;;;5059076;28;19930;-80
2021/12/20 10:35:24;;;;;;;;;;;5.40;99.90;;;;;;5061010;28;20310;-80
2021/12/20 10:37:49;;;;;;;;;;;5.40;99.90;;;;;;5044657;28;19921;-80
2021/12/20 10:40:15;;;;;;;;;;;5.40;99.90;;;;;;5079029;28;20410;-80
2021/12/20 10:42:40;;;;;;;;;;;6.20;99.90;;;;;;5078950;28;20362;-80
2021/12/20 10:45:11;;;;;;;;;;;5.40;99.90;;;;;;5077990;28;19932;-80
2021/12/20 10:47:37;;;;;;;;;;;5.80;99.90;;;;;;5079029;28;19927;-80
2021/12/20 10:50:23;;;;;;;;;;;5.40;99.90;;;;;;5061242;28;19924;-80
2021/12/20 10:52:49;;;;;;;;;;;5.40;99.90;;;;;;4946035;28;20508;-80
2021/12/20 10:55:34;;;;;;;;;;;5.30;99.90;;;;;;4977867;28;20018;-80
2021/12/20 10:58:19;;;;;;;;;;;5.50;99.90;;;;;;4962365;28;19934;-80
2021/12/20 11:00:45;;;;;;;;;;;5.40;99.90;;;;;;4978627;28;19930;-80
2021/12/20 11:05:59;;;;;;;;;;;5.40;99.90;;;;;;4962333;28;19949;-80
2021/12/20 11:11:10;;;;;;;;;;;5.50;99.90;;;;;;4977154;28;19965;-80
2021/12/20 11:13:39;;;;;;;;;;;5.50;99.90;;;;;;4944948;28;19926;-80
2021/12/20 11:16:26;;;;;;;;;;;5.50;99.90;;;;;;4941869;28;19926;-80
2021/12/20 11:19:09;;;;;;;;;;;5.50;99.90;;;;;;4941472;28;20013;-80
2021/12/20 11:21:35;;;;;;;;;;;5.50;99.90;;;;;;4961624;28;19932;-80
2021/12/20 11:24:01;;;;;;;;;;;5.50;99.90;;;;;;4944637;28;20017;-79
2021/12/20 11:28:52;;;;;;;;;;;5.50;99.90;;;;;;5106358;22;19924;-80
2021/12/20 11:31:18;;;;;;;;;;;5.50;99.90;;;;;;5076707;28;19988;-80
2021/12/20 11:33:43;;;;;;;;;;;5.60;99.90;;;;;;5093609;28;20025;-80
2021/12/20 11:36:09;;;;;;;;;;;5.60;99.90;;;;;;5075628;28;19924;-80
2021/12/20 11:38:34;;;;;;;;;;;5.70;99.90;;;;;;5059366;28;19924;-80
2021/12/20 11:41:00;;;;;;;;;;;5.70;99.90;;;;;;5076463;28;19930;-80
2021/12/20 11:43:26;;;;;;;;;;;5.90;99.90;;;;;;5076511;28;19974;-80
2021/12/20 11:45:52;;;;;;;;;;;5.80;99.90;;;;;;5078129;28;19927;-80
2021/12/20 11:48:19;;;;;;;;;;;5.70;99.90;;;;;;5096609;28;20341;-80
2021/12/20 11:50:44;;;;;;;;;;;5.80;99.90;;;;;;5099055;28;19924;-80
2021/12/20 11:53:11;;;;;;;;;;;5.80;99.90;;;;;;5081879;28;19949;-80
2021/12/20 11:55:38;;;;;;;;;;;5.80;99.90;;;;;;5083435;28;20411;-80
2021/12/20 11:58:05;;;;;;;;;;;6.30;99.90;;;;;;5068161;28;19931;-80
2021/12/20 12:00:32;;;;;;;;;;;5.80;99.90;;;;;;5070592;23;19924;-81
2021/12/20 12:03:03;;;;;;;;;;;5.80;99.90;;;;;;5064216;28;20023;-81
2021/12/20 12:05:35;;;;;;;;;;;5.80;99.90;;;;;;5063613;28;19924;-80
2021/12/20 12:08:19;;;;;;;;;;;5.80;99.90;;;;;;5096798;28;19925;-80
2021/12/20 12:10:44;;;;;;;;;;;5.80;99.90;;;;;;5079958;28;19924;-80
2021/12/20 12:13:15;;;;;;;;;;;6.00;99.90;;;;;;5080938;28;19955;-79
2021/12/20 12:16:05;;;;;;;;;;;5.70;99.90;;;;;;5079477;28;19925;-80
2021/12/20 12:19:01;;;;;;;;;;;5.90;99.90;;;;;;5080893;28;20353;-80
2021/12/20 12:21:38;;;;;;;;;;;5.90;99.90;;;;;;5002270;28;19925;-80
2021/12/20 12:24:14;;;;;;;;;;;5.90;99.90;;;;;;5002113;28;19926;-80
2021/12/20 12:26:41;;;;;;;;;;;5.90;99.90;;;;;;4985489;28;20388;-80
2021/12/20 12:29:21;;;;;;;;;;;6.10;99.90;;;;;;5002889;28;20024;-80
2021/12/20 12:31:49;;;;;;;;;;;6.00;99.90;;;;;;5018658;28;19926;-80
2021/12/20 12:34:16;;;;;;;;;;;6.00;99.90;;;;;;5002259;28;20066;-80
2021/12/20 12:36:42;;;;;;;;;;;6.00;99.90;;;;;;5018692;28;19973;-79
2021/12/20 12:39:10;;;;;;;;;;;6.00;99.90;;;;;;5017064;28;20355;-80
2021/12/20 12:41:49;;;;;;;;;;;6.00;99.90;;;;;;5017961;28;20364;-80
2021/12/20 12:44:21;;;;;;;;;;;6.00;99.90;;;;;;5001390;28;19926;-80
2021/12/20 12:47:03;;;;;;;;;;;5.90;99.90;;;;;;5002365;28;20044;-79
2021/12/20 12:49:32;;;;;;;;;;;6.00;99.90;;;;;;4985927;28;20008;-80
2021/12/20 12:52:05;;;;;;;;;;;6.00;99.90;;;;;;4985563;28;19926;-80
2021/12/20 12:54:34;;;;;;;;;;;6.00;99.90;;;;;;5018683;28;19975;-80
2021/12/20 12:57:08;;;;;;;;;;;6.10;99.90;;;;;;5011876;28;20282;-80
2021/12/20 12:59:37;;;;;;;;;;;6.00;99.90;;;;;;5077921;28;19931;-80
2021/12/20 13:02:10;;;;;;;;;;;6.00;99.90;;;;;;5080221;28;19924;-80
2021/12/20 13:04:54;;;;;;;;;;;6.00;99.90;;;;;;5080594;28;19924;-80
2021/12/20 13:07:21;;;;;;;;;;;6.00;99.90;;;;;;5079993;28;19935;-80
2021/12/20 13:09:47;;;;;;;;;;;6.00;99.90;;;;;;5079565;28;19925;-80
2021/12/20 13:12:18;;;;;;;;;;;6.00;99.90;;;;;;5079668;28;19924;-80
2021/12/20 13:15:02;;;;;;;;;;;6.10;99.90;;;;;;5079254;28;19924;-80
2021/12/20 13:17:29;;;;;;;;;;;6.00;99.90;;;;;;5078868;28;20470;-80
2021/12/20 13:22:52;;;;;;;;;;;6.10;99.90;;;;;;5079461;28;19931;-80
2021/12/20 13:25:31;;;;;;;;;;;6.10;99.90;;;;;;5061246;28;19925;-81
2021/12/20 13:27:57;;;;;;;;;;;6.10;99.90;;;;;;5085696;22;19946;-81
2021/12/20 13:30:42;;;;;;;;;;;7.20;99.90;;;;;;5061737;28;19924;-81
2021/12/20 13:33:08;;;;;;;;;;;6.10;99.90;;;;;;5060534;28;19932;-81
2021/12/20 13:35:34;;;;;;;;;;;6.10;99.90;;;;;;5103306;22;19924;-81
2021/12/20 13:38:10;;;;;;;;;;;6.30;99.90;;;;;;5106183;22;19924;-81
2021/12/20 13:40:46;;;;;;;;;;;6.60;99.90;;;;;;5087459;22;20396;-81
2021/12/20 13:43:12;;;;;;;;;;;6.90;99.90;;;;;;5060524;28;19932;-81
2021/12/20 13:45:37;;;;;;;;;;;8.00;99.90;;;;;;5085866;22;19974;-81
2021/12/20 13:48:07;;;;;;;;;;;8.20;99.90;;;;;;5063288;28;20401;-81
2021/12/20 13:50:33;;;;;;;;;;;7.20;99.90;;;;;;5062658;28;19932;-81
2021/12/20 13:52:58;;;;;;;;;;;7.30;99.90;;;;;;5060749;28;19935;-81
2021/12/20 13:55:24;;;;;;;;;;;7.10;99.90;;;;;;5066628;23;19925;-81
2021/12/20 13:57:50;;;;;;;;;;;7.00;99.90;;;;;;5077039;28;19925;-80
2021/12/20 14:00:16;;;;;;;;;;;6.90;99.90;;;;;;5093972;28;19971;-80
2021/12/20 14:02:46;;;;;;;;;;;6.80;99.90;;;;;;5060768;28;19974;-80
2021/12/20 14:05:26;;;;;;;;;;;6.70;99.90;;;;;;5093998;28;20007;-80
2021/12/20 14:07:54;;;;;;;;;;;6.70;99.90;;;;;;5073474;28;19921;-81
2021/12/20 14:10:21;;;;;;;;;;;7.20;99.90;;;;;;5074770;28;19925;-81
2021/12/20 14:12:53;;;;;;;;;;;6.50;99.90;;;;;;5074066;28;19926;-81
2021/12/20 14:15:18;;;;;;;;;;;6.50;99.90;;;;;;5073842;28;20386;-81
2021/12/20 14:18:03;;;;;;;;;;;7.60;99.90;;;;;;5074019;28;19982;-80
2021/12/20 14:20:41;;;;;;;;;;;6.40;99.90;;;;;;5074486;28;19931;-81
2021/12/20 14:23:08;;;;;;;;;;;6.20;99.90;;;;;;5073661;28;19924;-81
2021/12/20 14:25:35;;;;;;;;;;;6.00;99.90;;;;;;5073222;28;20015;-81
2021/12/20 14:28:02;;;;;;;;;;;5.80;99.90;;;;;;5056826;28;20265;-81
2021/12/20 14:30:27;;;;;;;;;;;5.70;99.90;;;;;;5074751;28;19929;-81
2021/12/20 14:32:54;;;;;;;;;;;5.50;99.90;;;;;;5073291;28;19921;-81
2021/12/20 14:35:36;;;;;;;;;;;6.30;99.90;;;;;;5056787;28;19925;-81
2021/12/20 14:38:22;;;;;;;;;;;5.30;99.90;;;;;;5065699;22;19924;-81
2021/12/20 14:40:48;;;;;;;;;;;5.90;99.90;;;;;;5074908;28;20370;-80
2021/12/20 14:43:16;;;;;;;;;;;5.10;99.90;;;;;;5097656;22;19924;-81
2021/12/20 14:45:43;;;;;;;;;;;5.00;99.90;;;;;;5079287;28;19977;-81
2021/12/20 14:48:32;;;;;;;;;;;4.90;99.90;;;;;;5097771;28;19924;-81
2021/12/20 14:50:58;;;;;;;;;;;4.80;99.90;;;;;;5078329;28;19964;-81
2021/12/20 14:53:26;;;;;;;;;;;5.70;99.90;;;;;;5077693;28;19931;-81
2021/12/20 14:55:52;;;;;;;;;;;4.60;99.90;;;;;;5094461;28;19927;-81
2021/12/20 14:58:19;;;;;;;;;;;4.50;99.90;;;;;;5077294;28;19975;-81
2021/12/20 15:00:47;;;;;;;;;;;4.90;99.90;;;;;;5094401;28;19959;-80